createdAt,value
2022-12-31T00:00:23.206Z,18.88
2022-12-31T00:02:50.560Z,27.77
2022-12-31T00:05:18.056Z,33.70
2022-12-31T00:07:45.227Z,24.38
2022-12-31T00:10:13.870Z,15.07
2022-12-31T00:12:41.193Z,13.50
2022-12-31T00:15:08.903Z,10.02
2022-12-31T00:17:36.281Z,14.98
2022-12-31T00:20:03.658Z,14.48
2022-12-31T00:22:30.820Z,8.70
2022-12-31T00:24:58.034Z,10.52
2022-12-31T00:27:25.624Z,10.88
2022-12-31T00:29:52.946Z,8.68
2022-12-31T00:32:20.173Z,6.93
2022-12-31T00:34:47.507Z,10.10
2022-12-31T00:37:16.777Z,10.65
2022-12-31T00:39:44.021Z,10.02
2022-12-31T00:42:11.595Z,10.10
2022-12-31T00:44:38.842Z,10.57
2022-12-31T00:47:06.160Z,10.38
2022-12-31T00:49:33.433Z,8.68
2022-12-31T00:52:00.822Z,11.43
2022-12-31T00:54:28.500Z,16.00
2022-12-31T00:56:55.969Z,10.00
2022-12-31T00:59:23.493Z,14.55
2022-12-31T01:01:50.734Z,13.63
2022-12-31T01:04:20.591Z,10.57
2022-12-31T01:06:48.192Z,10.00
2022-12-31T01:09:17.036Z,11.07
2022-12-31T01:11:45.040Z,10.50
2022-12-31T01:14:17.619Z,14.32
2022-12-31T01:16:46.260Z,7.20
2022-12-31T01:19:20.159Z,13.63
2022-12-31T01:21:50.323Z,9.60
2022-12-31T01:24:18.577Z,8.98
2022-12-31T01:26:46.588Z,11.82
2022-12-31T01:29:15.032Z,9.98
2022-12-31T01:31:42.499Z,8.65
2022-12-31T01:34:10.103Z,13.52
2022-12-31T01:36:38.678Z,8.85
2022-12-31T01:39:08.608Z,10.63
2022-12-31T01:41:42.052Z,8.65
2022-12-31T01:44:12.591Z,9.55
2022-12-31T01:46:44.806Z,6.30
2022-12-31T01:49:25.837Z,9.02
2022-12-31T01:52:00.800Z,7.78
2022-12-31T01:54:29.938Z,9.73
2022-12-31T01:56:57.703Z,7.93
2022-12-31T01:59:28.530Z,6.90
2022-12-31T02:01:56.854Z,12.73
2022-12-31T02:04:27.223Z,10.25
2022-12-31T02:07:07.200Z,11.00
2022-12-31T02:09:38.926Z,10.82
2022-12-31T02:12:07.559Z,10.02
2022-12-31T02:14:55.640Z,8.02
2022-12-31T02:17:32.080Z,9.20
2022-12-31T02:20:05.723Z,8.95
2022-12-31T02:23:01.734Z,10.65
2022-12-31T02:26:03.906Z,14.98
2022-12-31T02:29:09.089Z,7.78
2022-12-31T02:32:00.834Z,9.48
2022-12-31T02:34:41.076Z,9.20
2022-12-31T02:37:12.881Z,14.35
2022-12-31T02:39:41.613Z,10.70
2022-12-31T02:42:11.060Z,6.93
2022-12-31T02:44:41.293Z,8.68
2022-12-31T02:47:08.632Z,10.52
2022-12-31T02:49:50.549Z,10.48
2022-12-31T02:52:24.766Z,13.10
2022-12-31T02:55:08.993Z,11.43
2022-12-31T02:57:57.973Z,8.25
2022-12-31T03:00:44.127Z,9.32
2022-12-31T03:03:12.650Z,6.18
2022-12-31T03:05:44.310Z,17.23
2022-12-31T03:08:11.667Z,9.85
2022-12-31T03:10:40.335Z,5.80
2022-12-31T03:13:07.562Z,7.72
2022-12-31T03:15:35.304Z,11.95
2022-12-31T03:18:10.643Z,13.65
2022-12-31T03:21:03.019Z,10.85
2022-12-31T03:23:36.787Z,14.75
2022-12-31T03:26:12.786Z,10.10
2022-12-31T03:28:43.140Z,14.20
2022-12-31T03:31:10.536Z,10.82
2022-12-31T03:33:40.798Z,7.90
2022-12-31T03:36:13.113Z,10.57
2022-12-31T03:38:41.270Z,6.90
2022-12-31T03:41:10.858Z,9.50
2022-12-31T03:43:39.282Z,6.68
2022-12-31T03:46:06.858Z,11.25
2022-12-31T03:48:35.410Z,10.85
2022-12-31T03:51:05.460Z,8.27
2022-12-31T03:53:35.361Z,7.30
2022-12-31T03:56:02.870Z,7.70
2022-12-31T03:58:33.172Z,8.13
2022-12-31T04:01:00.634Z,7.35
2022-12-31T04:03:28.842Z,15.57
2022-12-31T04:05:56.576Z,10.13
2022-12-31T04:08:25.197Z,7.82
2022-12-31T04:10:52.503Z,5.43
2022-12-31T04:13:19.791Z,5.28
2022-12-31T04:15:50.625Z,9.43
2022-12-31T04:18:17.856Z,5.70
2022-12-31T04:20:45.204Z,8.95
2022-12-31T04:23:14.696Z,16.90
2022-12-31T04:25:42.189Z,12.00
2022-12-31T04:28:11.557Z,7.85
2022-12-31T04:30:38.790Z,7.32
2022-12-31T04:33:05.941Z,6.70
2022-12-31T04:35:34.220Z,7.60
2022-12-31T04:38:01.410Z,6.32
2022-12-31T04:40:29.174Z,7.85
2022-12-31T04:42:56.466Z,7.80
2022-12-31T04:45:24.091Z,8.55
2022-12-31T04:47:51.880Z,8.02
2022-12-31T04:50:19.081Z,7.53
2022-12-31T04:52:46.343Z,8.25
2022-12-31T04:55:14.728Z,6.63
2022-12-31T04:57:42.420Z,5.53
2022-12-31T05:00:10.139Z,5.50
2022-12-31T05:02:37.655Z,9.10
2022-12-31T05:05:05.849Z,7.95
2022-12-31T05:07:33.260Z,9.15
2022-12-31T05:10:02.947Z,6.63
2022-12-31T05:12:30.882Z,10.50
2022-12-31T05:14:58.527Z,10.00
2022-12-31T05:17:25.914Z,8.93
2022-12-31T05:19:53.139Z,6.93
2022-12-31T05:22:30.210Z,8.43
2022-12-31T05:24:59.048Z,9.52
2022-12-31T05:27:27.561Z,12.07
2022-12-31T05:29:54.841Z,7.70
2022-12-31T05:32:22.158Z,9.68
2022-12-31T05:34:49.594Z,11.70
2022-12-31T05:37:16.842Z,10.05
2022-12-31T05:39:44.150Z,3.97
2022-12-31T05:42:11.583Z,7.97
2022-12-31T05:44:42.433Z,9.38
2022-12-31T05:47:09.895Z,6.80
2022-12-31T05:49:37.134Z,9.70
2022-12-31T05:52:04.843Z,11.07
2022-12-31T05:54:36.875Z,7.30
2022-12-31T05:57:06.750Z,10.25
2022-12-31T05:59:34.929Z,7.85
2022-12-31T06:02:02.882Z,9.43
2022-12-31T06:04:31.099Z,9.65
2022-12-31T06:06:58.454Z,9.35
2022-12-31T06:09:26.585Z,10.57
2022-12-31T06:11:53.938Z,13.40
2022-12-31T06:14:21.520Z,9.95
2022-12-31T06:16:48.779Z,10.23
2022-12-31T06:19:17.068Z,11.77
2022-12-31T06:21:45.005Z,12.25
2022-12-31T06:24:12.586Z,9.68
2022-12-31T06:26:39.796Z,13.30
2022-12-31T06:29:07.883Z,18.98
2022-12-31T06:31:37.357Z,12.25
2022-12-31T06:34:04.837Z,9.57
2022-12-31T06:36:32.693Z,8.50
2022-12-31T06:39:07.441Z,10.55
2022-12-31T06:41:35.024Z,8.80
2022-12-31T06:44:02.244Z,14.43
2022-12-31T06:46:29.994Z,12.88
2022-12-31T06:49:00.048Z,9.57
2022-12-31T06:51:27.574Z,13.20
2022-12-31T06:53:54.863Z,13.05
2022-12-31T06:56:33.102Z,10.35
2022-12-31T06:59:02.716Z,9.90
2022-12-31T07:01:52.085Z,12.93
2022-12-31T07:04:53.424Z,12.00
2022-12-31T07:07:43.718Z,11.38
2022-12-31T07:10:29.967Z,13.52
2022-12-31T07:13:05.099Z,19.35
2022-12-31T07:15:59.838Z,13.20
2022-12-31T07:18:33.519Z,15.27
2022-12-31T07:21:00.958Z,10.77
2022-12-31T07:23:28.658Z,10.00
2022-12-31T07:26:09.586Z,16.52
2022-12-31T07:28:50.013Z,12.13
2022-12-31T07:31:23.700Z,13.63
2022-12-31T07:34:06.031Z,19.20
2022-12-31T07:36:53.116Z,9.43
2022-12-31T07:39:35.983Z,12.40
2022-12-31T07:42:32.489Z,16.92
2022-12-31T07:45:08.372Z,15.77
2022-12-31T07:47:36.312Z,15.90
2022-12-31T07:50:04.168Z,13.80
2022-12-31T07:52:31.606Z,16.40
2022-12-31T07:54:59.054Z,16.13
2022-12-31T07:57:37.221Z,15.13
2022-12-31T08:00:11.784Z,14.15
2022-12-31T08:03:19.547Z,12.10
2022-12-31T08:06:09.992Z,13.77
2022-12-31T08:08:47.346Z,16.33
2022-12-31T08:11:23.679Z,12.68
2022-12-31T08:13:54.184Z,16.50
2022-12-31T08:16:22.339Z,15.30
2022-12-31T08:18:49.957Z,14.32
2022-12-31T08:21:42.193Z,19.75
2022-12-31T08:24:36.567Z,17.52
2022-12-31T08:27:28.656Z,20.58
2022-12-31T08:30:12.026Z,17.27
2022-12-31T08:33:04.838Z,15.35
2022-12-31T08:36:04.793Z,13.07
2022-12-31T08:38:45.774Z,14.85
2022-12-31T08:41:42.341Z,11.88
2022-12-31T08:44:32.206Z,12.50
2022-12-31T08:47:34.145Z,19.70
2022-12-31T08:50:06.222Z,13.70
2022-12-31T08:52:33.623Z,14.43
2022-12-31T08:55:01.635Z,16.42
2022-12-31T08:57:46.912Z,15.57
2022-12-31T09:00:17.267Z,16.02
2022-12-31T09:03:03.280Z,16.67
2022-12-31T09:05:59.179Z,16.65
2022-12-31T09:08:41.529Z,18.52
2022-12-31T09:11:23.068Z,15.27
2022-12-31T09:14:08.187Z,17.40
2022-12-31T09:16:53.552Z,19.65
2022-12-31T09:19:21.009Z,18.52
2022-12-31T09:21:48.675Z,15.60
2022-12-31T09:24:17.357Z,13.48
2022-12-31T09:27:28.430Z,18.88
2022-12-31T09:30:11.041Z,17.08
2022-12-31T09:33:00.865Z,19.02
2022-12-31T09:35:41.207Z,22.70
2022-12-31T09:38:30.241Z,18.15
2022-12-31T09:41:06.750Z,18.58
2022-12-31T09:44:01.333Z,15.88
2022-12-31T09:46:31.531Z,17.08
2022-12-31T09:49:21.364Z,14.48
2022-12-31T09:52:16.972Z,22.63
2022-12-31T09:54:59.249Z,12.68
2022-12-31T09:57:59.081Z,15.05
2022-12-31T10:00:38.823Z,18.55
2022-12-31T10:03:20.420Z,18.15
2022-12-31T10:06:18.376Z,17.50
2022-12-31T10:09:11.775Z,18.85
2022-12-31T10:11:55.423Z,19.17
2022-12-31T10:17:15.004Z,17.13
2022-12-31T10:20:00.407Z,13.82
2022-12-31T10:23:05.292Z,15.38
2022-12-31T10:26:11.198Z,14.18
2022-12-31T10:28:54.741Z,17.23
2022-12-31T10:31:48.723Z,22.40
2022-12-31T10:34:26.025Z,14.15
2022-12-31T10:36:54.031Z,17.23
2022-12-31T10:39:27.395Z,15.93
2022-12-31T10:45:01.271Z,14.82
2022-12-31T10:47:31.419Z,16.15
2022-12-31T10:50:12.973Z,14.57
2022-12-31T10:52:42.186Z,13.98
2022-12-31T10:55:36.679Z,17.42
2022-12-31T10:58:13.547Z,18.70
2022-12-31T11:00:59.212Z,18.80
2022-12-31T11:04:04.404Z,23.10
2022-12-31T11:07:13.716Z,20.33
2022-12-31T11:09:59.786Z,17.48
2022-12-31T11:12:51.693Z,18.40
2022-12-31T11:15:22.179Z,13.23
2022-12-31T11:18:04.552Z,15.00
2022-12-31T11:20:58.253Z,17.05
2022-12-31T11:23:55.644Z,15.40
2022-12-31T11:26:30.951Z,15.80
2022-12-31T11:28:58.176Z,16.40
2022-12-31T11:31:43.463Z,17.63
2022-12-31T11:34:40.110Z,15.55
2022-12-31T11:37:29.857Z,15.95
2022-12-31T11:40:21.415Z,16.52
2022-12-31T11:43:01.138Z,16.52
2022-12-31T11:45:43.241Z,13.85
2022-12-31T11:48:30.540Z,12.75
2022-12-31T11:51:17.003Z,13.45
2022-12-31T11:53:58.320Z,15.55
2022-12-31T11:56:31.810Z,12.93
2022-12-31T11:58:59.174Z,10.95
2022-12-31T12:01:42.977Z,14.00
2022-12-31T12:04:11.568Z,13.27
2022-12-31T12:06:41.101Z,15.88
2022-12-31T12:09:16.328Z,15.57
2022-12-31T12:11:43.720Z,13.73
2022-12-31T12:14:41.637Z,12.85
2022-12-31T12:17:32.823Z,16.38
2022-12-31T12:20:06.272Z,17.75
2022-12-31T12:22:33.679Z,18.05
2022-12-31T12:25:08.667Z,20.35
2022-12-31T12:27:36.874Z,17.00
2022-12-31T12:30:24.318Z,14.52
2022-12-31T12:33:00.477Z,13.20
2022-12-31T12:35:34.454Z,14.38
2022-12-31T12:38:04.108Z,15.95
2022-12-31T12:40:35.259Z,13.82
2022-12-31T12:43:03.923Z,13.52
2022-12-31T12:45:52.168Z,25.40
2022-12-31T12:48:42.358Z,33.03
2022-12-31T12:51:37.777Z,36.08
2022-12-31T12:54:16.895Z,32.63
2022-12-31T12:57:10.894Z,22.33
2022-12-31T13:00:09.698Z,18.67
2022-12-31T13:02:43.283Z,28.15
2022-12-31T13:05:28.523Z,19.55
2022-12-31T13:08:02.106Z,18.63
2022-12-31T13:10:56.478Z,17.80
2022-12-31T13:13:43.525Z,23.38
2022-12-31T13:16:36.088Z,19.42
2022-12-31T13:19:17.149Z,18.92
2022-12-31T13:21:59.659Z,14.60
2022-12-31T13:24:33.360Z,14.40
2022-12-31T13:27:08.654Z,12.02
2022-12-31T13:29:37.115Z,11.43
2022-12-31T13:32:08.358Z,9.80
2022-12-31T13:34:41.149Z,8.63
2022-12-31T13:37:19.032Z,10.93
2022-12-31T13:39:50.181Z,7.43
2022-12-31T13:42:24.280Z,14.45
2022-12-31T13:45:06.248Z,14.50
2022-12-31T13:47:48.738Z,10.43
2022-12-31T13:50:33.356Z,12.13
2022-12-31T13:53:12.916Z,8.98
2022-12-31T13:55:49.741Z,8.32
2022-12-31T13:58:34.756Z,5.78
2022-12-31T14:01:35.026Z,9.40
2022-12-31T14:04:28.500Z,7.07
2022-12-31T14:07:45.375Z,8.05
2022-12-31T14:10:20.037Z,3.35
2022-12-31T14:13:04.993Z,5.85
2022-12-31T14:16:02.152Z,5.45
2022-12-31T14:18:32.283Z,5.07
2022-12-31T14:21:11.877Z,5.90
2022-12-31T14:23:48.576Z,6.25
2022-12-31T14:26:30.296Z,4.80
2022-12-31T14:29:15.477Z,4.60
2022-12-31T14:32:07.368Z,5.35
2022-12-31T14:34:50.057Z,4.15
2022-12-31T14:37:46.158Z,7.10
2022-12-31T14:40:33.086Z,5.90
2022-12-31T14:43:34.299Z,9.15
2022-12-31T14:46:13.960Z,5.97
2022-12-31T14:48:56.684Z,5.53
2022-12-31T14:51:29.538Z,3.25
2022-12-31T14:53:58.826Z,4.43
2022-12-31T14:56:40.648Z,4.25
2022-12-31T14:59:29.068Z,3.05
2022-12-31T15:01:58.697Z,6.30
2022-12-31T15:04:44.955Z,3.35
2022-12-31T15:07:28.167Z,6.70
2022-12-31T15:10:34.216Z,6.30
2022-12-31T15:13:49.370Z,3.08
2022-12-31T15:16:28.338Z,4.63
2022-12-31T15:19:17.065Z,3.40
2022-12-31T15:22:05.025Z,2.28
2022-12-31T15:24:33.206Z,5.40
2022-12-31T15:27:04.966Z,2.55
2022-12-31T15:29:44.584Z,3.70
2022-12-31T15:32:19.829Z,1.90
2022-12-31T15:34:47.286Z,2.47
2022-12-31T15:37:58.953Z,3.72
2022-12-31T15:40:26.313Z,3.35
2022-12-31T15:42:59.774Z,7.35
2022-12-31T15:45:38.584Z,1.60
2022-12-31T15:48:17.006Z,4.65
2022-12-31T15:50:46.321Z,3.58
2022-12-31T15:53:46.087Z,3.03
2022-12-31T15:56:21.723Z,10.75
2022-12-31T15:58:54.565Z,8.20
2022-12-31T16:01:28.308Z,12.15
2022-12-31T16:04:06.034Z,9.82
2022-12-31T16:06:38.186Z,12.05
2022-12-31T16:09:10.288Z,25.80
2022-12-31T16:11:42.096Z,26.67
2022-12-31T16:14:20.804Z,20.58
2022-12-31T16:17:07.852Z,15.68
2022-12-31T16:19:42.408Z,9.00
2022-12-31T16:22:36.176Z,5.30
2022-12-31T16:27:55.009Z,4.45
2022-12-31T16:30:36.367Z,3.58
2022-12-31T16:33:07.150Z,3.67
2022-12-31T16:35:37.107Z,2.42
2022-12-31T16:38:18.538Z,2.90
2022-12-31T16:41:19.562Z,2.67
2022-12-31T16:43:51.141Z,5.43
2022-12-31T16:46:38.518Z,5.90
2022-12-31T16:49:19.949Z,4.00
2022-12-31T16:51:50.097Z,4.03
2022-12-31T16:54:30.098Z,3.00
2022-12-31T16:56:59.374Z,3.13
2022-12-31T16:59:34.778Z,3.90
2022-12-31T17:02:10.189Z,2.00
2022-12-31T17:04:43.210Z,4.93
2022-12-31T17:07:33.152Z,2.33
2022-12-31T17:10:09.624Z,4.63
2022-12-31T17:13:17.404Z,5.03
2022-12-31T17:15:43.518Z,41.55
2022-12-31T17:18:24.493Z,30.05
2022-12-31T17:20:53.831Z,14.27
2022-12-31T17:23:28.985Z,6.80
2022-12-31T17:26:01.486Z,7.50
2022-12-31T17:28:38.488Z,5.13
2022-12-31T17:31:25.864Z,2.70
2022-12-31T17:34:14.209Z,4.82
2022-12-31T17:37:22.520Z,11.18
2022-12-31T17:39:52.363Z,10.27
2022-12-31T17:42:33.997Z,5.55
2022-12-31T17:45:20.247Z,9.95
2022-12-31T17:47:51.232Z,9.55
2022-12-31T17:50:20.722Z,7.90
2022-12-31T17:52:48.344Z,8.30
2022-12-31T17:55:16.571Z,11.77
2022-12-31T17:57:56.075Z,5.32
2022-12-31T18:00:26.995Z,3.53
2022-12-31T18:02:54.461Z,5.70
2022-12-31T18:05:23.681Z,5.28
2022-12-31T18:07:51.223Z,2.70
2022-12-31T18:10:20.857Z,28.33
2022-12-31T18:12:49.527Z,11.95
2022-12-31T18:15:19.894Z,3.22
2022-12-31T18:17:47.637Z,7.78
2022-12-31T18:20:16.187Z,6.35
2022-12-31T18:22:45.412Z,4.45
2022-12-31T18:25:24.117Z,6.63
2022-12-31T18:27:52.657Z,7.50
2022-12-31T18:30:20.212Z,11.63
2022-12-31T18:32:47.665Z,4.70
2022-12-31T18:35:57.738Z,6.38
2022-12-31T18:38:18.428Z,12.32
2022-12-31T18:40:56.405Z,7.07
2022-12-31T18:43:24.685Z,7.30
2022-12-31T18:45:52.952Z,7.82
2022-12-31T18:48:20.422Z,8.05
2022-12-31T18:50:47.753Z,6.63
2022-12-31T18:53:18.351Z,6.72
2022-12-31T18:55:47.927Z,4.43
2022-12-31T18:58:15.429Z,10.90
2022-12-31T19:00:43.415Z,6.93
2022-12-31T19:03:19.777Z,7.55
2022-12-31T19:05:50.038Z,8.52
2022-12-31T19:08:19.203Z,9.32
2022-12-31T19:10:48.198Z,5.93
2022-12-31T19:13:18.340Z,9.00
2022-12-31T19:15:51.034Z,9.93
2022-12-31T19:18:18.884Z,10.48
2022-12-31T19:20:47.847Z,6.38
2022-12-31T19:23:18.489Z,8.90
2022-12-31T19:25:49.083Z,8.85
2022-12-31T19:28:22.970Z,10.45
2022-12-31T19:30:50.306Z,8.43
2022-12-31T19:33:18.207Z,8.27
2022-12-31T19:35:46.479Z,10.95
2022-12-31T19:38:25.583Z,7.00
2022-12-31T19:40:56.070Z,7.90
2022-12-31T19:43:24.197Z,18.00
2022-12-31T19:45:52.445Z,6.22
2022-12-31T19:48:30.295Z,7.20
2022-12-31T19:51:04.693Z,7.85
2022-12-31T19:53:32.264Z,6.95
2022-12-31T19:55:59.492Z,7.88
2022-12-31T19:58:27.219Z,9.75
2022-12-31T20:01:02.338Z,10.43
2022-12-31T20:03:32.910Z,7.70
2022-12-31T20:06:07.574Z,5.82
2022-12-31T20:08:36.730Z,8.35
2022-12-31T20:11:12.437Z,10.73
2022-12-31T20:13:40.644Z,11.88
2022-12-31T20:16:09.744Z,14.23
2022-12-31T20:18:38.604Z,17.05
2022-12-31T20:21:12.846Z,13.88
2022-12-31T20:23:40.603Z,12.95
2022-12-31T20:26:10.617Z,7.85
2022-12-31T20:28:38.636Z,10.38
2022-12-31T20:31:12.119Z,26.00
2022-12-31T20:33:39.674Z,32.25
2022-12-31T20:36:09.949Z,16.73
2022-12-31T20:38:37.726Z,13.63
2022-12-31T20:41:06.132Z,9.32
2022-12-31T20:43:34.723Z,11.82
2022-12-31T20:46:15.636Z,12.25
2022-12-31T20:48:45.228Z,15.30
2022-12-31T20:51:14.386Z,11.98
2022-12-31T20:53:48.958Z,10.43
2022-12-31T20:56:16.935Z,12.88
2022-12-31T20:58:44.946Z,8.57
2022-12-31T21:01:12.786Z,19.80
2022-12-31T21:06:29.797Z,12.77
2022-12-31T21:08:58.619Z,11.55
2022-12-31T21:11:44.917Z,9.95
2022-12-31T21:14:12.222Z,10.48
2022-12-31T21:16:39.594Z,12.13
2022-12-31T21:19:06.988Z,9.82
2022-12-31T21:21:34.436Z,10.00
2022-12-31T21:24:01.957Z,16.33
2022-12-31T21:26:29.765Z,13.77
2022-12-31T21:28:57.312Z,13.35
2022-12-31T21:31:25.148Z,14.20
2022-12-31T21:33:52.271Z,20.40
2022-12-31T21:36:20.038Z,13.20
2022-12-31T21:38:47.362Z,8.25
2022-12-31T21:41:35.057Z,8.95
2022-12-31T21:44:03.407Z,8.95
2022-12-31T21:46:31.172Z,8.43
2022-12-31T21:49:00.135Z,8.88
2022-12-31T21:51:28.502Z,10.35
2022-12-31T21:53:56.097Z,12.50
2022-12-31T21:56:24.086Z,10.15
2022-12-31T21:59:15.618Z,9.15
2022-12-31T22:02:02.409Z,8.43
2022-12-31T22:07:17.510Z,7.18
2022-12-31T22:09:45.186Z,12.75
2022-12-31T22:12:12.515Z,11.95
2022-12-31T22:15:14.856Z,11.48
2022-12-31T22:17:27.709Z,9.18
2022-12-31T22:22:42.283Z,15.63
2022-12-31T22:25:09.928Z,11.10
2022-12-31T22:27:37.711Z,10.70
2022-12-31T22:30:06.031Z,12.55
2022-12-31T22:32:33.398Z,12.10
2022-12-31T22:35:00.708Z,12.50
2022-12-31T22:37:55.510Z,12.77
2022-12-31T22:40:15.279Z,11.73
2022-12-31T22:42:42.835Z,11.00
2022-12-31T22:45:10.806Z,11.15
2022-12-31T22:47:38.126Z,12.82
2022-12-31T22:50:05.777Z,11.23
2022-12-31T22:52:33.336Z,12.85
2022-12-31T22:55:00.616Z,13.57
2022-12-31T22:57:27.905Z,11.10
2022-12-31T22:59:55.254Z,14.18
2022-12-31T23:02:22.787Z,11.65
2022-12-31T23:04:50.007Z,13.55
2022-12-31T23:07:17.379Z,12.88
2022-12-31T23:10:03.106Z,13.93
2022-12-31T23:12:31.873Z,12.23
2022-12-31T23:15:17.712Z,13.93
2022-12-31T23:18:03.808Z,14.82
2022-12-31T23:20:49.702Z,17.50
2022-12-31T23:23:17.533Z,18.45
2022-12-31T23:25:48.166Z,26.20
2022-12-31T23:28:21.615Z,20.05
2022-12-31T23:33:22.272Z,19.65
2022-12-31T23:35:49.727Z,19.85
2022-12-31T23:38:19.556Z,15.88
2022-12-31T23:40:47.367Z,14.73
2022-12-31T23:43:22.653Z,16.70
2022-12-31T23:45:52.153Z,18.10
2022-12-31T23:48:19.502Z,19.15
2022-12-31T23:50:52.954Z,17.23
2022-12-31T23:53:20.859Z,21.30
2022-12-31T23:55:48.041Z,19.45
2022-12-31T23:58:15.902Z,16.63
